Greater Kankakee Airport Kankakee US
ICAO: KIKK
IATA: IKK
Category: Medium
Scheduled Services: No

Elevation: 630 ft
TransAlt. 18000 ft.

Airport Communications:
AWOS 3:111.6
CHICAGO CNTR:132.5
KANKAKEE RDO:122.2
CTAF/UNICOM:123

KIKK Zoom In..

Runways:

(A) RW 04 length 5981 ft width 100 ft
ILS 108.70 / hdg 38

(B) RW 16 length 4398 ft width 75 ft
---- / hdg 161

(C) RW 22 length 5981 ft width 100 ft
---- / hdg 218

(D) RW 34 length 4398 ft width 75 ft
---- / hdg 341

Location; KIKK
Day. 26 / Time. 13.35 Zulu
* Altimeter: 29.82
* Temperature: 23° c. 73.4°f.
* Wind from: 000° Speed 00 kn.
Dewpoint: 20° c.
Visibility: 10 Statute Miles.
Clouds: Scattered 900 ft.

KIKK 261335Z AUTO 00000KT 10SM SCT009 23/20 A2982 RMK AO2 T02270200


Wind - Calm.

 
 
jpsmedia.com for Web Design SOUNDCLOUD worldairports.se 2018   terms of use